createdAt,value
2018-11-21T00:00:34.333Z,27.13
2018-11-21T00:03:04.192Z,27.37
2018-11-21T00:05:33.828Z,26.20
2018-11-21T00:08:04.584Z,26.37
2018-11-21T00:10:34.116Z,25.33
2018-11-21T00:13:03.980Z,29.03
2018-11-21T00:15:33.436Z,28.33
2018-11-21T00:18:04.643Z,26.67
2018-11-21T00:20:35.129Z,27.70
2018-11-21T00:23:05.065Z,28.47
2018-11-21T00:25:38.022Z,26.90
2018-11-21T00:28:09.045Z,25.13
2018-11-21T00:30:38.954Z,25.50
2018-11-21T00:33:09.265Z,27.27
2018-11-21T00:35:42.606Z,26.63
2018-11-21T00:38:12.843Z,26.53
2018-11-21T00:40:42.845Z,29.17
2018-11-21T00:43:13.010Z,26.17
2018-11-21T00:45:43.253Z,28.57
2018-11-21T00:48:14.190Z,26.73
2018-11-21T00:50:46.153Z,28.83
2018-11-21T00:53:23.328Z,27.70
2018-11-21T00:55:53.511Z,25.67
2018-11-21T00:58:27.682Z,28.73
2018-11-21T01:00:57.306Z,30.77
2018-11-21T01:03:26.910Z,29.17
2018-11-21T01:05:56.879Z,25.30
2018-11-21T01:08:27.541Z,26.57
2018-11-21T01:10:57.393Z,25.90
2018-11-21T01:13:27.014Z,29.13
2018-11-21T01:15:57.333Z,28.80
2018-11-21T01:18:28.137Z,26.63
2018-11-21T01:20:59.670Z,29.03
2018-11-21T01:23:31.901Z,29.83
2018-11-21T01:26:02.204Z,28.00
2018-11-21T01:28:31.782Z,26.73
2018-11-21T01:31:04.892Z,28.33
2018-11-21T01:33:34.687Z,27.57
2018-11-21T01:36:05.213Z,27.27
2018-11-21T01:38:34.910Z,32.10
2018-11-21T01:41:07.703Z,29.57
2018-11-21T01:43:37.623Z,30.40
2018-11-21T01:46:08.519Z,28.60
2018-11-21T01:48:39.532Z,28.30
2018-11-21T01:51:08.990Z,25.70
2018-11-21T01:53:44.320Z,27.03
2018-11-21T01:56:13.863Z,29.67
2018-11-21T01:58:43.468Z,32.97
2018-11-21T02:01:13.574Z,31.43
2018-11-21T02:03:43.567Z,27.83
2018-11-21T02:06:13.058Z,29.83
2018-11-21T02:08:43.004Z,32.97
2018-11-21T02:11:15.076Z,29.80
2018-11-21T02:13:44.709Z,29.87
2018-11-21T02:16:14.758Z,29.67
2018-11-21T02:18:44.365Z,32.37
2018-11-21T02:21:14.266Z,30.63
2018-11-21T02:23:45.047Z,30.93
2018-11-21T02:26:22.093Z,31.10
2018-11-21T02:28:52.006Z,30.93
2018-11-21T02:31:21.766Z,28.00
2018-11-21T02:33:51.427Z,28.03
2018-11-21T02:36:20.926Z,31.63
2018-11-21T02:38:52.532Z,28.40
2018-11-21T02:41:22.552Z,30.63
2018-11-21T02:43:52.318Z,29.67
2018-11-21T02:46:22.412Z,28.93
2018-11-21T02:48:52.079Z,30.87
2018-11-21T02:51:22.474Z,31.37
2018-11-21T02:53:52.449Z,30.50
2018-11-21T02:56:22.754Z,30.23
2018-11-21T02:58:52.403Z,31.67
2018-11-21T03:01:25.141Z,27.53
2018-11-21T03:03:55.884Z,33.40
2018-11-21T03:06:26.604Z,33.30
2018-11-21T03:08:58.309Z,31.87
2018-11-21T03:11:28.531Z,31.17
2018-11-21T03:13:57.993Z,27.87
2018-11-21T03:16:27.680Z,28.93
2018-11-21T03:18:58.238Z,29.57
2018-11-21T03:21:27.645Z,29.03
2018-11-21T03:23:57.685Z,30.73
2018-11-21T03:26:27.685Z,28.80
2018-11-21T03:28:57.803Z,32.90
2018-11-21T03:31:27.665Z,32.50
2018-11-21T03:33:57.849Z,30.00
2018-11-21T03:36:27.030Z,29.33
2018-11-21T03:39:00.689Z,32.43
2018-11-21T03:41:30.861Z,31.10
2018-11-21T03:44:01.767Z,32.33
2018-11-21T03:46:31.573Z,34.93
2018-11-21T03:49:01.652Z,31.33
2018-11-21T03:51:34.466Z,32.23
2018-11-21T03:54:05.739Z,31.47
2018-11-21T03:56:37.292Z,31.60
2018-11-21T03:59:10.578Z,30.27
2018-11-21T04:01:40.922Z,34.27
2018-11-21T04:04:12.176Z,32.30
2018-11-21T04:06:43.189Z,31.90
2018-11-21T04:09:13.541Z,33.77
2018-11-21T04:11:44.157Z,36.23
2018-11-21T04:14:24.493Z,34.77
2018-11-21T04:16:58.549Z,36.60
2018-11-21T04:19:28.203Z,33.47
2018-11-21T04:21:58.552Z,34.67
2018-11-21T04:24:29.345Z,29.00
2018-11-21T04:26:59.062Z,33.23
2018-11-21T04:29:28.949Z,38.20
2018-11-21T04:31:58.604Z,31.67
2018-11-21T04:34:28.292Z,33.80
2018-11-21T04:36:58.364Z,32.97
2018-11-21T04:39:28.256Z,37.90
2018-11-21T04:41:58.607Z,31.80
2018-11-21T04:44:28.634Z,33.73
2018-11-21T04:46:58.815Z,30.60
2018-11-21T04:49:28.582Z,35.10
2018-11-21T04:51:58.588Z,36.37
2018-11-21T04:54:28.374Z,35.33
2018-11-21T04:56:58.353Z,34.63
2018-11-21T04:59:27.902Z,32.40
2018-11-21T05:01:59.837Z,33.03
2018-11-21T05:04:29.786Z,32.77
2018-11-21T05:06:59.179Z,33.30
2018-11-21T05:09:28.729Z,36.27
2018-11-21T05:11:58.312Z,36.37
2018-11-21T05:14:28.091Z,39.93
2018-11-21T05:16:58.643Z,36.00
2018-11-21T05:19:29.559Z,34.30
2018-11-21T05:21:59.687Z,38.00
2018-11-21T05:24:32.987Z,34.33
2018-11-21T05:27:02.637Z,35.73
2018-11-21T05:29:32.170Z,35.40
2018-11-21T05:32:01.658Z,38.27
2018-11-21T05:34:32.468Z,35.30
2018-11-21T05:37:03.289Z,37.17
2018-11-21T05:39:33.521Z,39.73
2018-11-21T05:42:03.264Z,35.73
2018-11-21T05:44:33.402Z,36.13
2018-11-21T05:47:03.214Z,35.10
2018-11-21T05:49:35.099Z,38.33
2018-11-21T05:52:03.789Z,36.50
2018-11-21T05:54:33.394Z,35.20
2018-11-21T05:57:03.024Z,36.33
2018-11-21T05:59:32.939Z,36.90
2018-11-21T06:02:02.531Z,37.33
2018-11-21T06:04:32.829Z,37.80
2018-11-21T06:07:02.243Z,35.80
2018-11-21T06:09:31.908Z,37.00
2018-11-21T06:12:04.409Z,38.30
2018-11-21T06:14:31.886Z,34.47
2018-11-21T06:17:04.421Z,36.17
2018-11-21T06:19:33.915Z,36.83
2018-11-21T06:22:03.574Z,35.27
2018-11-21T06:24:34.334Z,37.03
2018-11-21T06:27:06.260Z,40.10
2018-11-21T06:29:36.109Z,36.50
2018-11-21T06:32:08.980Z,38.80
2018-11-21T06:34:43.589Z,38.07
2018-11-21T06:37:13.790Z,37.97
2018-11-21T06:39:44.049Z,37.40
2018-11-21T06:42:13.930Z,36.83
2018-11-21T06:44:44.761Z,39.13
2018-11-21T06:47:14.624Z,40.97
2018-11-21T06:49:44.470Z,37.17
2018-11-21T06:52:22.091Z,44.53
2018-11-21T06:54:45.616Z,38.03
2018-11-21T06:57:15.878Z,39.40
2018-11-21T06:59:45.435Z,41.30
2018-11-21T07:02:15.327Z,43.73
2018-11-21T07:04:45.033Z,40.60
2018-11-21T07:07:14.998Z,39.77
2018-11-21T07:09:45.997Z,41.83
2018-11-21T07:12:15.360Z,49.07
2018-11-21T07:14:44.754Z,46.50
2018-11-21T07:17:14.929Z,46.93
2018-11-21T07:19:44.490Z,45.73
2018-11-21T07:22:17.846Z,42.57
2018-11-21T07:24:50.764Z,41.83
2018-11-21T07:27:22.729Z,42.23
2018-11-21T07:29:52.828Z,41.30
2018-11-21T07:32:29.491Z,40.17
2018-11-21T07:34:59.087Z,39.97
2018-11-21T07:37:29.029Z,42.87
2018-11-21T07:39:58.539Z,41.83
2018-11-21T07:42:30.757Z,41.97
2018-11-21T07:45:00.573Z,41.30
2018-11-21T07:47:32.496Z,38.73
2018-11-21T07:50:06.349Z,43.30
2018-11-21T07:52:36.952Z,43.83
2018-11-21T07:55:07.714Z,41.03
2018-11-21T07:57:48.371Z,44.97
2018-11-21T08:00:56.280Z,41.67
2018-11-21T08:03:29.263Z,36.70
2018-11-21T08:06:01.092Z,40.73
2018-11-21T08:08:48.230Z,38.57
2018-11-21T08:11:39.534Z,37.27
2018-11-21T08:14:40.393Z,36.73
2018-11-21T08:17:20.198Z,34.97
2018-11-21T08:20:14.703Z,37.70
2018-11-21T08:22:54.727Z,37.50
2018-11-21T08:25:48.908Z,35.63
2018-11-21T08:28:31.371Z,40.07
2018-11-21T08:31:00.822Z,35.97
2018-11-21T08:33:34.081Z,38.43
2018-11-21T08:36:01.054Z,36.03
2018-11-21T08:38:30.546Z,36.73
2018-11-21T08:41:00.070Z,40.10
2018-11-21T08:43:29.432Z,34.13
2018-11-21T08:46:01.066Z,34.83
2018-11-21T08:48:30.452Z,37.90
2018-11-21T08:50:59.885Z,37.30
2018-11-21T08:53:29.191Z,35.10
2018-11-21T08:55:58.591Z,39.47
2018-11-21T08:58:27.942Z,36.93
2018-11-21T09:00:57.330Z,36.13
2018-11-21T09:03:26.590Z,35.33
2018-11-21T09:05:56.001Z,39.83
2018-11-21T09:08:25.889Z,38.33
2018-11-21T09:10:55.318Z,37.50
2018-11-21T09:13:24.656Z,40.00
2018-11-21T09:15:54.036Z,39.05
2018-11-21T09:18:23.434Z,36.63
2018-11-21T09:20:52.812Z,37.30
2018-11-21T09:23:22.192Z,37.50
2018-11-21T09:25:51.615Z,36.63
2018-11-21T09:28:20.922Z,41.43
2018-11-21T09:30:50.245Z,34.90
2018-11-21T09:33:19.599Z,38.40
2018-11-21T09:35:49.064Z,36.90
2018-11-21T09:38:18.384Z,35.47
2018-11-21T09:40:47.697Z,37.30
2018-11-21T09:43:17.037Z,36.13
2018-11-21T09:45:46.406Z,34.57
2018-11-21T09:48:15.760Z,34.23
2018-11-21T09:50:45.168Z,41.83
2018-11-21T09:53:14.640Z,37.13
2018-11-21T09:55:44.082Z,32.07
2018-11-21T09:58:13.507Z,39.70
2018-11-21T10:01:47.863Z,38.03
2018-11-21T10:04:17.241Z,37.13
2018-11-21T10:06:47.056Z,34.33
2018-11-21T10:09:22.289Z,35.50
2018-11-21T10:11:51.658Z,33.53
2018-11-21T10:14:21.002Z,37.90
2018-11-21T10:16:50.358Z,38.37
2018-11-21T10:19:19.720Z,36.70
2018-11-21T10:21:49.350Z,37.27
2018-11-21T10:24:18.839Z,40.20
2018-11-21T10:26:48.289Z,35.57
2018-11-21T10:29:17.828Z,39.93
2018-11-21T10:31:47.169Z,39.77
2018-11-21T10:34:16.500Z,36.13
2018-11-21T10:36:45.816Z,40.13
2018-11-21T10:39:15.187Z,40.70
2018-11-21T10:41:44.497Z,39.57
2018-11-21T10:44:13.959Z,38.90
2018-11-21T10:46:43.290Z,39.33
2018-11-21T10:49:12.650Z,39.43
2018-11-21T10:51:41.997Z,38.43
2018-11-21T10:54:11.846Z,38.37
2018-11-21T10:56:41.713Z,37.17
2018-11-21T10:59:11.095Z,41.93
2018-11-21T11:01:57.929Z,40.60
2018-11-21T11:04:52.473Z,38.80
2018-11-21T11:07:55.814Z,37.07
2018-11-21T11:10:38.793Z,41.60
2018-11-21T11:13:25.764Z,40.63
2018-11-21T11:16:17.059Z,37.67
2018-11-21T11:19:20.824Z,39.07
2018-11-21T11:22:08.004Z,38.03
2018-11-21T11:25:14.547Z,36.73
2018-11-21T11:28:08.855Z,37.60
2018-11-21T11:30:48.262Z,39.67
2018-11-21T11:33:35.138Z,39.57
2018-11-21T11:36:21.629Z,40.40
2018-11-21T11:39:16.060Z,43.10
2018-11-21T11:42:03.379Z,42.60
2018-11-21T11:44:51.131Z,41.57
2018-11-21T11:47:31.964Z,43.73
2018-11-21T11:50:23.224Z,40.27
2018-11-21T11:53:10.642Z,46.30
2018-11-21T11:55:59.178Z,40.53
2018-11-21T11:58:35.913Z,40.90
2018-11-21T12:01:23.266Z,41.83
2018-11-21T12:04:10.739Z,43.63
2018-11-21T12:06:53.272Z,46.70
2018-11-21T12:09:50.398Z,40.97
2018-11-21T12:12:40.117Z,41.23
2018-11-21T12:15:28.745Z,41.00
2018-11-21T12:18:15.716Z,41.30
2018-11-21T12:20:57.317Z,37.53
2018-11-21T12:23:54.665Z,38.80
2018-11-21T12:26:45.704Z,40.80
2018-11-21T12:29:35.252Z,39.73
2018-11-21T12:32:22.435Z,36.70
2018-11-21T12:35:13.487Z,39.93
2018-11-21T12:38:00.809Z,40.20
2018-11-21T12:40:50.803Z,40.80
2018-11-21T12:43:28.622Z,37.60
2018-11-21T12:46:32.156Z,39.57
2018-11-21T12:49:26.538Z,39.13
2018-11-21T12:52:26.815Z,38.77
2018-11-21T12:55:23.877Z,34.50
2018-11-21T12:58:17.266Z,38.13
2018-11-21T13:01:04.332Z,37.27
2018-11-21T13:03:51.308Z,37.80
2018-11-21T13:06:38.398Z,34.87
2018-11-21T13:09:27.700Z,38.30
2018-11-21T13:12:15.519Z,37.30
2018-11-21T13:15:09.468Z,37.57
2018-11-21T13:17:54.119Z,42.23
2018-11-21T13:20:42.568Z,43.30
2018-11-21T13:23:40.177Z,37.27
2018-11-21T13:26:26.072Z,34.87
2018-11-21T13:29:29.693Z,37.17
2018-11-21T13:32:36.496Z,41.87
2018-11-21T13:35:35.061Z,34.97
2018-11-21T13:38:16.041Z,39.40
2018-11-21T13:40:57.512Z,39.93
2018-11-21T13:43:48.530Z,41.23
2018-11-21T13:46:35.665Z,36.13
2018-11-21T13:49:23.275Z,36.53
2018-11-21T13:52:10.375Z,37.47
2018-11-21T13:54:58.756Z,38.40
2018-11-21T13:57:28.749Z,39.37
2018-11-21T13:59:58.285Z,38.03
2018-11-21T14:02:27.694Z,37.53
2018-11-21T14:04:57.360Z,40.73
2018-11-21T14:07:27.681Z,41.83
2018-11-21T14:09:57.014Z,44.70
2018-11-21T14:12:26.505Z,40.33
2018-11-21T14:14:55.873Z,33.63
2018-11-21T14:17:27.760Z,39.63
2018-11-21T14:19:54.546Z,37.37
2018-11-21T14:22:23.952Z,37.87
2018-11-21T14:24:53.294Z,41.50
2018-11-21T14:27:22.662Z,39.00
2018-11-21T14:29:52.033Z,37.13
2018-11-21T14:32:21.489Z,37.97
2018-11-21T14:34:50.867Z,37.63
2018-11-21T14:37:20.420Z,42.30
2018-11-21T14:39:49.841Z,38.53
2018-11-21T14:42:19.360Z,37.37
2018-11-21T14:44:48.687Z,37.40
2018-11-21T14:47:18.043Z,38.60
2018-11-21T14:49:53.181Z,41.30
2018-11-21T14:52:22.550Z,38.83
2018-11-21T14:54:51.879Z,36.87
2018-11-21T14:57:21.251Z,36.23
2018-11-21T14:59:50.601Z,37.03
2018-11-21T15:02:20.002Z,41.70
2018-11-21T15:04:49.419Z,37.77
2018-11-21T15:07:18.834Z,39.27
2018-11-21T15:09:48.190Z,39.40
2018-11-21T15:12:17.496Z,39.10
2018-11-21T15:14:46.879Z,42.87
2018-11-21T15:17:16.254Z,40.40
2018-11-21T15:19:45.736Z,33.33
2018-11-21T15:22:15.095Z,37.13
2018-11-21T15:24:44.477Z,39.70
2018-11-21T15:27:13.978Z,36.77
2018-11-21T15:29:43.435Z,37.13
2018-11-21T15:32:12.785Z,35.87
2018-11-21T15:34:42.200Z,40.73
2018-11-21T15:37:11.582Z,35.93
2018-11-21T15:39:43.520Z,39.77
2018-11-21T15:42:13.291Z,39.67
2018-11-21T15:44:42.764Z,36.97
2018-11-21T15:47:12.028Z,35.83
2018-11-21T15:49:41.426Z,37.10
2018-11-21T15:52:10.795Z,42.87
2018-11-21T15:54:40.179Z,37.73
2018-11-21T15:57:09.517Z,32.03
2018-11-21T15:59:38.856Z,33.97
2018-11-21T16:02:08.248Z,33.10
2018-11-21T16:04:37.591Z,38.23
2018-11-21T16:07:07.121Z,34.50
2018-11-21T16:09:36.447Z,36.63
2018-11-21T16:12:05.974Z,31.70
2018-11-21T16:14:35.362Z,35.87
2018-11-21T16:17:04.765Z,40.23
2018-11-21T16:19:34.164Z,31.13
2018-11-21T16:22:03.549Z,32.40
2018-11-21T16:24:32.957Z,32.83
2018-11-21T16:27:02.325Z,35.47
2018-11-21T16:29:36.778Z,32.20
2018-11-21T16:32:01.033Z,31.83
2018-11-21T16:34:30.423Z,29.33
2018-11-21T16:36:59.773Z,35.03
2018-11-21T16:39:29.148Z,30.40
2018-11-21T16:41:58.478Z,31.53
2018-11-21T16:44:27.839Z,31.23
2018-11-21T16:46:57.187Z,31.13
2018-11-21T16:49:26.727Z,29.27
2018-11-21T16:51:56.232Z,34.83
2018-11-21T16:54:25.586Z,31.57
2018-11-21T16:56:54.918Z,30.83
2018-11-21T16:59:24.862Z,29.47
2018-11-21T17:01:54.340Z,28.43
2018-11-21T17:04:23.773Z,29.07
2018-11-21T17:06:53.248Z,30.13
2018-11-21T17:09:22.636Z,26.07
2018-11-21T17:11:51.969Z,30.20
2018-11-21T17:14:21.459Z,30.90
2018-11-21T17:16:50.793Z,27.87
2018-11-21T17:19:20.135Z,27.93
2018-11-21T17:21:50.400Z,30.67
2018-11-21T17:24:19.776Z,27.03
2018-11-21T17:26:49.420Z,27.90
2018-11-21T17:29:18.785Z,29.77
2018-11-21T17:31:48.208Z,26.07
2018-11-21T17:34:17.571Z,26.83
2018-11-21T17:36:46.965Z,26.63
2018-11-21T17:39:16.590Z,27.53
2018-11-21T17:41:45.933Z,28.67
2018-11-21T17:44:15.777Z,26.53
2018-11-21T17:46:45.238Z,25.77
2018-11-21T17:49:14.562Z,29.73
2018-11-21T17:51:43.911Z,27.80
2018-11-21T17:54:13.377Z,25.90
2018-11-21T17:56:42.663Z,24.07
2018-11-21T17:59:12.015Z,24.17
2018-11-21T18:01:41.363Z,26.27
2018-11-21T18:04:10.732Z,25.87
2018-11-21T18:06:40.113Z,26.97
2018-11-21T18:09:13.334Z,26.33
2018-11-21T18:11:42.867Z,23.40
